Terminal Aerodrome Forecast
Issued by NWS Pocatello, ID

Home | Current Version | Previous Version | Text Only | Print | Product List | Glossary On
Versions: 1 2 3 4 5 6 7 8 9 10 11 12 13 14 15
000
FTUS45 KPIH 281129
TAFPIH
TAF
KPIH 281129Z 2812/2912 19011KT P6SM SKC
     FM281500 22013G23KT P6SM SCT070 SCT150
     FM281900 24028G38KT P6SM FEW070 SCT250
     FM290200 21014KT P6SM SCT250
     FM290600 23007KT P6SM SKC=

USA.gov is the U.S. government's official web portal to all federal, state and local government web resources and services.